Amado, Arizona
Current Conditions -  °F | °C
As of 6:54 AM on Monday 24 Nov 2014 (Local Time) from KOLS Reporting Station
Clear Clear  
Wind Chill: -3°   Ceiling: Unl
Heat Index: -3°   Visibility: 10mi
Dew Point: -16°   Wind: 0mph
Humidity: 36%   Direction: NA
Pressure: 30.17"   Gusts: NA
Location:  31.71°N, 111.07°W
Report Text: KOLS 241354Z AUTO 00000KT 10SM CLR M03/M16 A3017 RMK AO2 SLP208 T10281161
Loading
Personal Weather Stations






























Interactive Weather Map New forecast layout! Learn more

10-Day Weather Forecast

Advertisements
Track Severe Weather on mobile